createdAt,value
2017-12-19T00:02:26.425Z,2.49
2017-12-19T00:04:53.992Z,2.56
2017-12-19T00:07:21.527Z,2.49
2017-12-19T00:09:49.064Z,2.49
2017-12-19T00:12:16.616Z,2.52
2017-12-19T00:14:44.168Z,2.59
2017-12-19T00:17:11.721Z,2.56
2017-12-19T00:19:39.277Z,2.55
2017-12-19T00:22:06.876Z,2.58
2017-12-19T00:24:34.399Z,2.60
2017-12-19T00:27:01.959Z,2.62
2017-12-19T00:29:29.509Z,2.68
2017-12-19T00:31:57.099Z,2.67
2017-12-19T00:34:24.638Z,2.70
2017-12-19T00:36:52.190Z,2.72
2017-12-19T00:39:19.761Z,2.76
2017-12-19T00:41:47.274Z,2.75
2017-12-19T00:44:14.803Z,2.92
2017-12-19T00:46:42.735Z,2.90
2017-12-19T00:49:10.319Z,2.79
2017-12-19T00:51:37.855Z,2.80
2017-12-19T00:54:05.445Z,2.86
2017-12-19T00:56:33.923Z,2.70
2017-12-19T00:59:01.445Z,2.85
2017-12-19T01:01:29.033Z,2.87
2017-12-19T01:03:56.564Z,2.82
2017-12-19T01:06:24.110Z,2.89
2017-12-19T01:08:51.686Z,2.93
2017-12-19T01:11:19.237Z,2.98
2017-12-19T01:13:46.755Z,2.90
2017-12-19T01:16:14.299Z,3.00
2017-12-19T01:18:41.873Z,2.78
2017-12-19T01:21:09.397Z,2.79
2017-12-19T01:23:36.933Z,2.83
2017-12-19T01:26:04.513Z,2.86
2017-12-19T01:28:32.045Z,2.94
2017-12-19T01:30:59.961Z,2.85
2017-12-19T01:33:27.489Z,2.90
2017-12-19T01:35:55.017Z,2.95
2017-12-19T01:38:22.614Z,2.89
2017-12-19T01:40:50.141Z,2.89
2017-12-19T01:43:18.564Z,3.03
2017-12-19T01:45:46.103Z,2.96
2017-12-19T01:48:13.675Z,3.07
2017-12-19T01:50:41.201Z,2.94
2017-12-19T01:53:08.739Z,3.01
2017-12-19T01:55:36.301Z,2.89
2017-12-19T01:58:03.842Z,2.92
2017-12-19T02:00:31.446Z,2.89
2017-12-19T02:02:58.972Z,3.06
2017-12-19T02:05:26.509Z,3.11
2017-12-19T02:07:54.080Z,3.10
2017-12-19T02:10:21.612Z,3.17
2017-12-19T02:12:49.145Z,3.13
2017-12-19T02:15:16.737Z,3.15
2017-12-19T02:17:44.289Z,3.05
2017-12-19T02:20:11.862Z,3.05
2017-12-19T02:22:39.466Z,2.99
2017-12-19T02:25:07.010Z,2.98
2017-12-19T02:27:34.564Z,2.99
2017-12-19T02:30:02.226Z,2.97
2017-12-19T02:32:29.809Z,3.08
2017-12-19T02:34:57.354Z,3.10
2017-12-19T02:37:24.956Z,3.20
2017-12-19T02:39:52.503Z,3.14
2017-12-19T02:42:20.045Z,3.11
2017-12-19T02:44:47.624Z,3.10
2017-12-19T02:47:15.217Z,3.23
2017-12-19T02:49:42.757Z,3.22
2017-12-19T02:52:10.304Z,3.24
2017-12-19T02:54:37.917Z,3.39
2017-12-19T02:57:05.459Z,3.39
2017-12-19T02:59:32.995Z,3.33
2017-12-19T03:02:00.605Z,3.32
2017-12-19T03:04:28.143Z,3.31
2017-12-19T03:06:55.691Z,3.16
2017-12-19T03:09:23.274Z,3.22
2017-12-19T03:11:50.803Z,3.21
2017-12-19T03:14:18.386Z,3.27
2017-12-19T03:16:45.936Z,3.13
2017-12-19T03:19:13.532Z,3.12
2017-12-19T03:21:41.060Z,3.13
2017-12-19T03:24:08.609Z,3.15
2017-12-19T03:26:36.205Z,3.25
2017-12-19T03:29:03.796Z,3.28
2017-12-19T03:31:31.336Z,3.30
2017-12-19T03:33:58.875Z,3.27
2017-12-19T03:36:26.475Z,3.19
2017-12-19T03:38:54.021Z,3.07
2017-12-19T03:41:21.556Z,3.15
2017-12-19T03:43:49.524Z,3.15
2017-12-19T03:46:17.086Z,3.19
2017-12-19T03:48:44.645Z,3.17
2017-12-19T03:51:12.646Z,3.10
2017-12-19T03:53:40.180Z,3.12
2017-12-19T03:56:07.737Z,3.14
2017-12-19T03:58:35.310Z,3.24
2017-12-19T04:01:02.912Z,3.29
2017-12-19T04:03:30.446Z,3.27
2017-12-19T04:05:58.000Z,3.33
2017-12-19T04:08:25.560Z,3.34
2017-12-19T04:10:53.136Z,3.13
2017-12-19T04:13:20.684Z,3.23
2017-12-19T04:15:48.229Z,3.14
2017-12-19T04:18:15.792Z,3.11
2017-12-19T04:20:43.352Z,3.11
2017-12-19T04:23:10.896Z,3.12
2017-12-19T04:25:38.465Z,3.13
2017-12-19T04:28:06.013Z,3.11
2017-12-19T04:30:33.629Z,3.19
2017-12-19T04:33:01.281Z,3.19
2017-12-19T04:35:28.834Z,3.17
2017-12-19T04:37:56.438Z,3.17
2017-12-19T04:40:23.979Z,3.16
2017-12-19T04:42:51.503Z,3.18
2017-12-19T04:45:19.120Z,3.18
2017-12-19T04:47:46.670Z,3.26
2017-12-19T04:50:14.203Z,3.21
2017-12-19T04:52:41.800Z,3.24
2017-12-19T04:55:09.351Z,3.27
2017-12-19T04:57:36.973Z,3.28
2017-12-19T05:00:04.576Z,3.28
2017-12-19T05:02:32.116Z,3.27
2017-12-19T05:04:59.667Z,3.35
2017-12-19T05:07:27.564Z,3.41
2017-12-19T05:09:55.113Z,3.36
2017-12-19T05:12:22.648Z,3.52
2017-12-19T05:14:50.233Z,3.44
2017-12-19T05:17:17.792Z,3.39
2017-12-19T05:19:45.349Z,3.52
2017-12-19T05:22:12.953Z,3.52
2017-12-19T05:24:40.496Z,3.39
2017-12-19T05:27:08.032Z,3.46
2017-12-19T05:29:35.630Z,3.46
2017-12-19T05:32:03.206Z,3.49
2017-12-19T05:34:30.736Z,3.45
2017-12-19T05:36:58.332Z,3.48
2017-12-19T05:39:25.889Z,3.50
2017-12-19T05:41:53.433Z,3.47
2017-12-19T05:44:21.041Z,3.51
2017-12-19T05:46:48.585Z,3.50
2017-12-19T05:49:16.125Z,3.54
2017-12-19T05:51:43.701Z,3.59
2017-12-19T05:54:11.688Z,3.64
2017-12-19T05:56:39.234Z,3.62
2017-12-19T05:59:06.771Z,3.62
2017-12-19T06:01:34.369Z,3.66
2017-12-19T06:04:01.909Z,3.64
2017-12-19T06:06:29.444Z,3.65
2017-12-19T06:08:57.003Z,3.68
2017-12-19T06:11:24.556Z,3.69
2017-12-19T06:13:52.123Z,3.67
2017-12-19T06:16:19.652Z,3.71
2017-12-19T06:18:47.261Z,3.91
2017-12-19T06:21:14.823Z,3.92
2017-12-19T06:23:42.351Z,3.92
2017-12-19T06:26:09.923Z,3.88
2017-12-19T06:28:37.465Z,4.01
2017-12-19T06:31:05.056Z,4.03
2017-12-19T06:33:32.599Z,4.12
2017-12-19T06:36:00.134Z,4.19
2017-12-19T06:38:27.720Z,4.23
2017-12-19T06:40:55.251Z,4.21
2017-12-19T06:43:22.785Z,4.01
2017-12-19T06:45:50.400Z,3.96
2017-12-19T06:48:17.941Z,4.08
2017-12-19T06:50:45.489Z,4.07
2017-12-19T06:53:13.097Z,3.88
2017-12-19T06:55:40.640Z,3.93
2017-12-19T06:58:08.193Z,3.91
2017-12-19T07:00:35.780Z,4.03
2017-12-19T07:05:01.099Z,3.87
2017-12-19T07:07:28.664Z,3.94
2017-12-19T07:09:56.245Z,3.85
2017-12-19T07:12:23.785Z,3.95
2017-12-19T07:14:51.336Z,3.97
2017-12-19T07:17:18.923Z,4.17
2017-12-19T07:19:46.454Z,4.12
2017-12-19T07:22:14.006Z,4.23
2017-12-19T07:24:41.570Z,4.10
2017-12-19T07:27:09.105Z,4.13
2017-12-19T07:29:36.666Z,4.12
2017-12-19T07:32:04.204Z,4.28
2017-12-19T07:34:31.812Z,4.29
2017-12-19T07:36:59.357Z,4.48
2017-12-19T07:39:26.905Z,4.47
2017-12-19T07:41:54.455Z,4.40
2017-12-19T07:44:22.368Z,4.32
2017-12-19T07:46:49.883Z,4.20
2017-12-19T07:49:17.414Z,4.16
2017-12-19T07:51:44.984Z,4.22
2017-12-19T07:54:12.535Z,4.37
2017-12-19T07:56:40.059Z,4.34
2017-12-19T07:59:08.325Z,4.04
2017-12-19T08:01:35.858Z,4.18
2017-12-19T08:04:03.388Z,4.23
2017-12-19T08:06:30.983Z,4.01
2017-12-19T08:08:58.516Z,4.05
2017-12-19T08:11:26.041Z,4.17
2017-12-19T08:13:53.632Z,4.15
2017-12-19T08:16:21.172Z,4.37
2017-12-19T08:18:48.712Z,4.51
2017-12-19T08:21:16.280Z,4.50
2017-12-19T08:23:43.800Z,4.56
2017-12-19T08:26:11.326Z,4.48
2017-12-19T08:28:38.904Z,4.53
2017-12-19T08:31:06.426Z,4.55
2017-12-19T08:33:33.946Z,4.58
2017-12-19T08:36:01.565Z,4.40
2017-12-19T08:38:29.084Z,4.50
2017-12-19T08:40:56.614Z,4.49
2017-12-19T08:43:24.192Z,4.87
2017-12-19T08:45:51.742Z,4.70
2017-12-19T08:48:19.299Z,4.79
2017-12-19T08:50:46.881Z,4.70
2017-12-19T08:53:14.399Z,4.85
2017-12-19T08:55:41.929Z,4.78
2017-12-19T08:58:09.517Z,4.77
2017-12-19T09:00:37.044Z,4.80
2017-12-19T09:03:04.569Z,4.71
2017-12-19T09:05:32.174Z,4.85
2017-12-19T09:07:59.701Z,4.86
2017-12-19T09:10:27.228Z,4.92
2017-12-19T09:12:54.771Z,4.83
2017-12-19T09:15:22.297Z,4.73
2017-12-19T09:17:49.873Z,4.86
2017-12-19T09:20:17.409Z,4.96
2017-12-19T09:22:44.938Z,4.67
2017-12-19T09:25:13.272Z,4.67
2017-12-19T09:27:40.826Z,5.03
2017-12-19T09:30:08.347Z,5.21
2017-12-19T09:32:35.892Z,5.13
2017-12-19T09:35:03.426Z,5.04
2017-12-19T09:37:31.000Z,5.01
2017-12-19T09:39:58.525Z,5.21
2017-12-19T09:42:26.042Z,5.00
2017-12-19T09:44:53.916Z,5.07
2017-12-19T09:47:21.448Z,5.34
2017-12-19T09:49:48.989Z,5.40
2017-12-19T09:52:16.550Z,5.22
2017-12-19T09:54:44.096Z,4.90
2017-12-19T09:57:11.607Z,5.12
2017-12-19T09:59:39.198Z,5.20
2017-12-19T10:02:06.728Z,5.01
2017-12-19T10:04:34.253Z,5.12
2017-12-19T10:07:02.428Z,5.09
2017-12-19T10:09:29.955Z,5.19
2017-12-19T10:11:57.479Z,5.31
2017-12-19T10:14:25.024Z,5.32
2017-12-19T10:16:52.595Z,5.43
2017-12-19T10:19:20.141Z,5.53
2017-12-19T10:21:47.692Z,5.68
2017-12-19T10:24:15.300Z,5.55
2017-12-19T10:26:42.841Z,5.39
2017-12-19T10:29:10.410Z,5.52
2017-12-19T10:31:38.004Z,5.61
2017-12-19T10:34:05.519Z,5.79
2017-12-19T10:36:33.048Z,5.94
2017-12-19T10:39:00.634Z,5.78
2017-12-19T10:41:28.150Z,5.72
2017-12-19T10:43:55.669Z,6.03
2017-12-19T10:46:23.257Z,5.71
2017-12-19T10:48:50.781Z,6.08
2017-12-19T10:51:18.303Z,5.92
2017-12-19T10:53:45.858Z,6.41
2017-12-19T10:56:13.367Z,6.29
2017-12-19T10:58:40.941Z,6.17
2017-12-19T11:01:08.468Z,6.20
2017-12-19T11:03:35.996Z,6.14
2017-12-19T11:06:03.876Z,6.18
2017-12-19T11:08:31.426Z,6.35
2017-12-19T11:10:58.935Z,6.55
2017-12-19T11:13:26.503Z,6.31
2017-12-19T11:15:54.024Z,6.16
2017-12-19T11:18:21.565Z,6.35
2017-12-19T11:20:49.609Z,6.36
2017-12-19T11:23:17.216Z,6.10
2017-12-19T11:25:44.763Z,6.12
2017-12-19T11:28:12.380Z,6.20
2017-12-19T11:30:39.928Z,6.42
2017-12-19T11:33:07.506Z,6.80
2017-12-19T11:35:35.103Z,6.14
2017-12-19T11:38:02.657Z,6.66
2017-12-19T11:40:30.209Z,6.57
2017-12-19T11:42:58.104Z,6.64
2017-12-19T11:45:25.650Z,6.34
2017-12-19T11:47:53.186Z,6.52
2017-12-19T11:50:20.763Z,6.53
2017-12-19T11:52:48.277Z,6.81
2017-12-19T11:55:15.793Z,6.81
2017-12-19T11:57:43.372Z,7.22
2017-12-19T12:00:10.899Z,6.25
2017-12-19T12:02:38.417Z,6.39
2017-12-19T12:05:05.988Z,6.57
2017-12-19T12:07:33.519Z,6.48
2017-12-19T12:10:01.035Z,6.43
2017-12-19T12:12:28.572Z,6.62
2017-12-19T12:14:56.093Z,6.59
2017-12-19T12:17:23.944Z,6.40
2017-12-19T12:19:51.455Z,6.44
2017-12-19T12:22:18.968Z,6.50
2017-12-19T12:24:46.517Z,6.53
2017-12-19T12:27:14.045Z,6.27
2017-12-19T12:29:41.599Z,6.52
2017-12-19T12:32:09.137Z,6.45
2017-12-19T12:34:36.656Z,6.51
2017-12-19T12:37:04.213Z,6.61
2017-12-19T12:39:31.745Z,6.34
2017-12-19T12:41:59.316Z,6.58
2017-12-19T12:44:26.857Z,6.48
2017-12-19T12:46:54.396Z,6.47
2017-12-19T12:49:21.965Z,6.50
2017-12-19T12:51:49.487Z,6.36
2017-12-19T12:54:17.000Z,6.43
2017-12-19T12:56:44.571Z,6.48
2017-12-19T12:59:12.100Z,6.43
2017-12-19T13:01:39.624Z,6.53
2017-12-19T13:04:07.204Z,6.57
2017-12-19T13:06:34.741Z,6.52
2017-12-19T13:09:02.294Z,6.55
2017-12-19T13:11:29.859Z,6.35
2017-12-19T13:13:57.368Z,6.27
2017-12-19T13:16:24.886Z,6.31
2017-12-19T13:18:52.430Z,6.52
2017-12-19T13:21:19.949Z,6.41
2017-12-19T13:23:47.854Z,6.50
2017-12-19T13:26:15.372Z,6.41
2017-12-19T13:28:42.885Z,6.31
2017-12-19T13:31:10.430Z,6.16
2017-12-19T13:33:37.954Z,6.32
2017-12-19T13:36:05.864Z,6.12
2017-12-19T13:38:33.396Z,6.07
2017-12-19T13:41:00.933Z,6.13
2017-12-19T13:43:28.495Z,6.24
2017-12-19T13:45:56.015Z,6.24
2017-12-19T13:48:23.542Z,6.13
2017-12-19T13:50:51.120Z,6.06
2017-12-19T13:53:18.640Z,6.01
2017-12-19T13:55:46.155Z,6.18
2017-12-19T13:58:13.721Z,6.21
2017-12-19T14:00:41.649Z,6.16
2017-12-19T14:03:09.169Z,5.99
2017-12-19T14:05:36.684Z,5.94
2017-12-19T14:08:04.274Z,5.92
2017-12-19T14:10:31.800Z,6.01
2017-12-19T14:12:59.334Z,5.96
2017-12-19T14:15:26.905Z,5.95
2017-12-19T14:17:54.437Z,5.98
2017-12-19T14:20:22.019Z,6.01
2017-12-19T14:22:49.590Z,5.98
2017-12-19T14:25:17.099Z,5.99
2017-12-19T14:27:44.639Z,5.88
2017-12-19T14:30:12.224Z,6.04
2017-12-19T14:32:39.748Z,5.88
2017-12-19T14:35:07.277Z,5.85
2017-12-19T14:37:34.852Z,5.86
2017-12-19T14:40:02.382Z,5.97
2017-12-19T14:42:29.904Z,5.90
2017-12-19T14:44:57.480Z,5.86
2017-12-19T14:47:25.021Z,5.81
2017-12-19T14:49:52.545Z,5.90
2017-12-19T14:52:20.121Z,5.90
2017-12-19T14:54:47.667Z,5.88
2017-12-19T14:57:15.194Z,5.81
2017-12-19T14:59:42.750Z,5.85
2017-12-19T15:02:10.268Z,5.83
2017-12-19T15:04:37.784Z,5.75
2017-12-19T15:07:05.333Z,5.84
2017-12-19T15:09:32.856Z,5.75
2017-12-19T15:12:00.446Z,5.83
2017-12-19T15:14:27.980Z,5.78
2017-12-19T15:16:55.496Z,5.92
2017-12-19T15:19:23.040Z,5.96
2017-12-19T15:21:50.590Z,5.85
2017-12-19T15:24:18.469Z,5.92
2017-12-19T15:26:45.979Z,5.94
2017-12-19T15:29:13.493Z,5.70
2017-12-19T15:31:41.031Z,5.69
2017-12-19T15:34:08.597Z,5.78
2017-12-19T15:36:36.120Z,5.82
2017-12-19T15:39:03.668Z,5.68
2017-12-19T15:41:31.237Z,5.75
2017-12-19T15:43:58.783Z,5.73
2017-12-19T15:46:26.300Z,5.82
2017-12-19T15:48:53.866Z,5.80
2017-12-19T15:51:21.393Z,5.76
2017-12-19T15:53:48.916Z,5.88
2017-12-19T15:56:16.480Z,5.74
2017-12-19T15:58:44.000Z,5.77
2017-12-19T16:01:11.527Z,5.94
2017-12-19T16:03:39.085Z,5.76
2017-12-19T16:06:06.597Z,5.67
2017-12-19T16:08:34.138Z,5.73
2017-12-19T16:11:01.669Z,5.72
2017-12-19T16:13:29.217Z,5.82
2017-12-19T16:15:56.736Z,5.83
2017-12-19T16:18:24.281Z,5.75
2017-12-19T16:20:51.824Z,5.77
2017-12-19T16:23:19.344Z,5.82
2017-12-19T16:25:46.927Z,5.68
2017-12-19T16:28:14.461Z,5.72
2017-12-19T16:30:41.982Z,5.94
2017-12-19T16:33:09.528Z,5.72
2017-12-19T16:35:37.081Z,5.70
2017-12-19T16:38:04.908Z,5.85
2017-12-19T16:40:32.483Z,5.82
2017-12-19T16:42:59.996Z,5.85
2017-12-19T16:45:27.517Z,5.89
2017-12-19T16:47:55.051Z,5.97
2017-12-19T16:50:22.581Z,5.89
2017-12-19T16:52:50.548Z,5.99
2017-12-19T16:55:18.076Z,5.92
2017-12-19T16:57:45.614Z,5.86
2017-12-19T17:00:13.164Z,5.94
2017-12-19T17:02:41.115Z,6.09
2017-12-19T17:05:08.645Z,5.83
2017-12-19T17:07:36.156Z,5.91
2017-12-19T17:10:03.722Z,5.92
2017-12-19T17:12:31.264Z,5.88
2017-12-19T17:14:58.843Z,5.96
2017-12-19T17:17:26.359Z,6.05
2017-12-19T17:19:53.875Z,6.01
2017-12-19T17:22:21.842Z,6.11
2017-12-19T17:24:49.367Z,5.86
2017-12-19T17:27:16.892Z,6.03
2017-12-19T17:29:44.505Z,6.07
2017-12-19T17:32:12.019Z,5.89
2017-12-19T17:34:39.553Z,5.92
2017-12-19T17:37:07.127Z,5.84
2017-12-19T17:39:34.652Z,5.87
2017-12-19T17:42:02.214Z,5.77
2017-12-19T17:44:29.797Z,5.97
2017-12-19T17:46:57.316Z,5.90
2017-12-19T17:49:24.836Z,6.05
2017-12-19T17:51:52.788Z,5.89
2017-12-19T17:54:20.303Z,6.03
2017-12-19T17:56:47.825Z,5.98
2017-12-19T17:59:15.400Z,5.85
2017-12-19T18:01:42.972Z,5.89
2017-12-19T18:04:10.548Z,5.88
2017-12-19T18:06:38.106Z,5.89
2017-12-19T18:09:05.852Z,5.96
2017-12-19T18:11:33.468Z,6.03
2017-12-19T18:14:01.054Z,6.20
2017-12-19T18:16:29.001Z,5.88
2017-12-19T18:18:56.532Z,5.93
2017-12-19T18:21:24.057Z,5.82
2017-12-19T18:23:51.605Z,5.84
2017-12-19T18:26:19.192Z,5.89
2017-12-19T18:28:46.708Z,6.00
2017-12-19T18:31:14.228Z,5.99
2017-12-19T18:33:41.826Z,5.89
2017-12-19T18:36:09.344Z,5.90
2017-12-19T18:38:36.859Z,5.83
2017-12-19T18:41:04.420Z,5.84
2017-12-19T18:43:31.968Z,6.02
2017-12-19T18:45:59.499Z,5.96
2017-12-19T18:48:27.375Z,5.94
2017-12-19T18:50:54.933Z,5.99
2017-12-19T18:53:22.487Z,5.97
2017-12-19T18:55:50.115Z,5.83
2017-12-19T18:58:17.647Z,5.82
2017-12-19T19:00:45.185Z,5.77
2017-12-19T19:03:12.766Z,5.81
2017-12-19T19:05:40.297Z,5.87
2017-12-19T19:08:07.816Z,5.92
2017-12-19T19:10:35.386Z,6.00
2017-12-19T19:13:02.998Z,6.14
2017-12-19T19:15:30.507Z,6.13
2017-12-19T19:17:58.076Z,6.13
2017-12-19T19:20:25.604Z,5.93
2017-12-19T19:22:53.120Z,5.89
2017-12-19T19:25:20.678Z,6.13
2017-12-19T19:27:48.202Z,6.10
2017-12-19T19:30:15.989Z,6.08
2017-12-19T19:32:43.580Z,5.99
2017-12-19T19:35:11.101Z,5.82
2017-12-19T19:37:38.672Z,5.89
2017-12-19T19:40:06.200Z,5.81
2017-12-19T19:42:33.724Z,5.74
2017-12-19T19:45:01.272Z,5.72
2017-12-19T19:47:28.814Z,5.85
2017-12-19T19:49:56.385Z,5.73
2017-12-19T19:52:23.910Z,5.72
2017-12-19T19:54:51.535Z,5.80
2017-12-19T19:57:19.121Z,5.82
2017-12-19T19:59:46.726Z,5.90
2017-12-19T20:02:14.298Z,5.90
2017-12-19T20:04:41.876Z,6.03
2017-12-19T20:07:09.400Z,5.98
2017-12-19T20:09:36.971Z,5.85
2017-12-19T20:12:04.492Z,5.97
2017-12-19T20:14:32.007Z,5.81
2017-12-19T20:16:59.579Z,5.77
2017-12-19T20:19:27.108Z,5.76
2017-12-19T20:21:54.638Z,5.80
2017-12-19T20:24:22.504Z,5.86
2017-12-19T20:26:50.041Z,5.92
2017-12-19T20:29:17.563Z,5.97
2017-12-19T20:31:45.458Z,5.87
2017-12-19T20:34:12.992Z,5.88
2017-12-19T20:36:40.516Z,5.99
2017-12-19T20:39:08.092Z,6.05
2017-12-19T20:41:35.606Z,5.93
2017-12-19T20:44:03.131Z,6.15
2017-12-19T20:46:30.721Z,6.05
2017-12-19T20:48:58.273Z,5.94
2017-12-19T20:51:25.783Z,5.97
2017-12-19T20:53:53.351Z,5.95
2017-12-19T20:56:20.882Z,5.99
2017-12-19T20:58:48.408Z,5.96
2017-12-19T21:01:16.013Z,6.02
2017-12-19T21:03:43.576Z,5.92
2017-12-19T21:06:11.189Z,6.01
2017-12-19T21:08:38.736Z,5.99
2017-12-19T21:11:06.492Z,6.00
2017-12-19T21:13:34.081Z,6.01
2017-12-19T21:16:01.608Z,5.95
2017-12-19T21:18:29.195Z,5.90
2017-12-19T21:20:56.786Z,5.88
2017-12-19T21:23:24.392Z,5.88
2017-12-19T21:25:51.943Z,5.89
2017-12-19T21:28:19.472Z,5.92
2017-12-19T21:30:47.040Z,5.86
2017-12-19T21:33:14.572Z,5.84
2017-12-19T21:35:42.164Z,5.92
2017-12-19T21:38:09.752Z,5.88
2017-12-19T21:40:37.282Z,5.85
2017-12-19T21:43:04.890Z,5.83
2017-12-19T21:45:32.472Z,5.84
2017-12-19T21:48:00.011Z,5.82
2017-12-19T21:50:27.552Z,5.89
2017-12-19T21:52:55.454Z,5.81
2017-12-19T21:55:23.096Z,5.84
2017-12-19T21:57:50.627Z,5.83
2017-12-19T22:00:18.185Z,5.84
2017-12-19T22:02:45.709Z,5.86
2017-12-19T22:05:13.318Z,5.84
2017-12-19T22:07:40.926Z,5.82
2017-12-19T22:10:08.452Z,5.82
2017-12-19T22:12:36.037Z,5.83
2017-12-19T22:15:03.600Z,5.85
2017-12-19T22:17:31.123Z,5.85
2017-12-19T22:19:59.068Z,5.85
2017-12-19T22:22:26.629Z,5.87
2017-12-19T22:24:54.152Z,5.86
2017-12-19T22:27:21.692Z,5.87
2017-12-19T22:29:49.289Z,5.92
2017-12-19T22:32:16.816Z,5.90
2017-12-19T22:34:44.339Z,5.90
2017-12-19T22:37:11.925Z,5.86
2017-12-19T22:39:39.448Z,5.89
2017-12-19T22:42:06.986Z,5.89
2017-12-19T22:44:34.565Z,5.95
2017-12-19T22:47:02.163Z,5.95
2017-12-19T22:49:29.688Z,5.93
2017-12-19T22:51:57.501Z,5.90
2017-12-19T22:54:25.080Z,5.88
2017-12-19T22:56:52.613Z,5.92
2017-12-19T22:59:20.192Z,5.93
2017-12-19T23:01:47.712Z,5.92
2017-12-19T23:04:15.233Z,5.87
2017-12-19T23:06:43.044Z,5.89
2017-12-19T23:09:10.569Z,5.90
2017-12-19T23:11:38.105Z,5.95
2017-12-19T23:14:05.652Z,5.98
2017-12-19T23:16:33.176Z,5.92
2017-12-19T23:19:00.798Z,5.93
2017-12-19T23:21:28.335Z,5.94
2017-12-19T23:23:55.861Z,5.94
2017-12-19T23:26:23.505Z,5.94
2017-12-19T23:28:51.033Z,6.00
2017-12-19T23:31:18.591Z,5.98
2017-12-19T23:33:46.140Z,5.98
2017-12-19T23:36:13.669Z,5.99
2017-12-19T23:38:41.248Z,5.95
2017-12-19T23:41:08.771Z,5.95
2017-12-19T23:43:36.302Z,5.95
2017-12-19T23:46:03.856Z,6.03
2017-12-19T23:48:31.437Z,6.05
2017-12-19T23:50:59.003Z,6.06
2017-12-19T23:53:26.636Z,6.15
2017-12-19T23:55:54.156Z,6.03
2017-12-19T23:58:22.033Z,6.06
